Time;durP1;ratioP1;P1;durP2;ratioP2;P2;SDS_P1;SDS_P2;PMS_P1;PMS_P2;Temp;Humidity;BMP_temperature;BMP_pressure;BME280_temperature;BME280_humidity;BME280_pressure;Samples;Min_cycle;Max_cycle;Signal;HPM_P1;HPM_P2
2023/08/05 00:00:48;;;;;;;17.88;7.88;;;;;;;;;;6127042;23;20416;-45
2023/08/05 00:03:16;;;;;;;20.42;7.72;;;;;;;;;;6118776;23;20018;-43
2023/08/05 00:05:44;;;;;;;21.80;7.75;;;;;;;;;;6124850;23;20096;-43
2023/08/05 00:08:12;;;;;;;20.97;8.50;;;;;;;;;;6129205;23;20072;-44
2023/08/05 00:10:42;;;;;;;20.27;7.60;;;;;;;;;;6118815;23;20014;-42
2023/08/05 00:13:11;;;;;;;19.15;8.13;;;;;;;;;;6125816;23;20025;-43
2023/08/05 00:15:39;;;;;;;17.65;7.30;;;;;;;;;;6128357;23;20021;-42
2023/08/05 00:18:07;;;;;;;17.73;7.75;;;;;;;;;;6123776;23;20017;-42
2023/08/05 00:20:34;;;;;;;19.03;7.30;;;;;;;;;;6123527;23;20021;-41
2023/08/05 00:23:02;;;;;;;17.83;7.25;;;;;;;;;;6122249;23;20021;-42
2023/08/05 00:25:29;;;;;;;16.65;7.10;;;;;;;;;;6125652;23;20025;-42
2023/08/05 00:27:57;;;;;;;18.00;7.82;;;;;;;;;;6119581;23;20256;-43
2023/08/05 00:30:27;;;;;;;18.02;7.85;;;;;;;;;;6153180;23;20025;-45
2023/08/05 00:32:57;;;;;;;20.00;8.97;;;;;;;;;;6124797;23;20325;-43
2023/08/05 00:35:25;;;;;;;19.77;7.25;;;;;;;;;;6124473;23;20021;-42
2023/08/05 00:37:52;;;;;;;22.50;7.70;;;;;;;;;;6121031;23;20025;-42
2023/08/05 00:40:20;;;;;;;18.50;7.53;;;;;;;;;;6129440;23;20021;-46
2023/08/05 00:42:47;;;;;;;18.00;7.35;;;;;;;;;;6118964;23;20089;-42
2023/08/05 00:45:15;;;;;;;18.17;7.90;;;;;;;;;;6127706;23;20021;-46
2023/08/05 00:47:44;;;;;;;21.42;8.20;;;;;;;;;;6118488;23;20018;-45
2023/08/05 00:50:13;;;;;;;17.75;7.32;;;;;;;;;;6148148;23;20404;-44
2023/08/05 00:52:41;;;;;;;19.70;8.25;;;;;;;;;;6120456;23;20037;-46
2023/08/05 00:55:10;;;;;;;17.25;7.63;;;;;;;;;;6122664;23;20053;-44
2023/08/05 00:57:38;;;;;;;22.40;9.00;;;;;;;;;;6128329;23;20020;-45
2023/08/05 01:00:07;;;;;;;18.75;7.43;;;;;;;;;;6119182;23;20017;-48
2023/08/05 01:02:34;;;;;;;19.52;8.07;;;;;;;;;;6125047;23;20021;-45
2023/08/05 01:05:04;;;;;;;20.85;8.00;;;;;;;;;;6126992;23;20024;-43
2023/08/05 01:07:32;;;;;;;16.58;7.88;;;;;;;;;;6119771;23;20025;-46
2023/08/05 01:10:00;;;;;;;17.57;7.77;;;;;;;;;;6128232;23;20321;-44
2023/08/05 01:12:28;;;;;;;19.95;8.13;;;;;;;;;;6124914;23;20017;-46
2023/08/05 01:14:55;;;;;;;19.05;8.52;;;;;;;;;;6144149;23;20236;-43
2023/08/05 01:17:23;;;;;;;19.88;7.97;;;;;;;;;;6132778;23;20036;-42
2023/08/05 01:19:51;;;;;;;21.25;8.32;;;;;;;;;;6122284;23;20021;-45
2023/08/05 01:22:24;;;;;;;19.80;7.70;;;;;;;;;;6130247;23;20020;-43
2023/08/05 01:24:53;;;;;;;24.80;8.82;;;;;;;;;;6123701;23;20022;-43
2023/08/05 01:27:23;;;;;;;20.75;8.10;;;;;;;;;;6109424;23;20029;-43
2023/08/05 01:29:52;;;;;;;21.90;8.45;;;;;;;;;;6128358;23;20460;-45
2023/08/05 01:32:20;;;;;;;21.80;9.40;;;;;;;;;;6121994;23;20112;-46
2023/08/05 01:34:48;;;;;;;19.73;7.53;;;;;;;;;;6126180;23;20025;-45
2023/08/05 01:37:16;;;;;;;18.77;8.38;;;;;;;;;;6147394;23;20432;-43
2023/08/05 01:39:46;;;;;;;20.88;7.95;;;;;;;;;;6130684;23;20014;-47
2023/08/05 01:42:14;;;;;;;23.05;9.48;;;;;;;;;;6122380;23;20124;-44
2023/08/05 01:44:43;;;;;;;18.73;7.53;;;;;;;;;;6130338;23;20023;-43
2023/08/05 01:47:11;;;;;;;18.63;8.20;;;;;;;;;;6122409;23;20026;-44
2023/08/05 01:49:38;;;;;;;19.90;8.73;;;;;;;;;;6132238;23;20023;-43
2023/08/05 01:52:06;;;;;;;20.02;8.23;;;;;;;;;;6127950;23;20020;-45
2023/08/05 01:54:34;;;;;;;18.15;8.55;;;;;;;;;;6112740;23;20025;-42
2023/08/05 01:57:01;;;;;;;21.23;7.88;;;;;;;;;;6130366;23;20013;-42
2023/08/05 01:59:29;;;;;;;19.30;8.03;;;;;;;;;;6133581;23;20017;-43
2023/08/05 02:01:58;;;;;;;20.73;7.97;;;;;;;;;;6128636;23;20186;-43
2023/08/05 02:04:26;;;;;;;19.88;8.50;;;;;;;;;;6130990;23;20125;-43
2023/08/05 02:06:53;;;;;;;23.17;9.00;;;;;;;;;;6135321;23;20025;-43
2023/08/05 02:09:21;;;;;;;22.30;8.98;;;;;;;;;;6123710;23;20018;-43
2023/08/05 02:11:49;;;;;;;22.90;9.40;;;;;;;;;;6132769;23;20021;-46
2023/08/05 02:14:16;;;;;;;19.73;8.18;;;;;;;;;;6126168;23;20020;-43
2023/08/05 02:16:44;;;;;;;23.17;8.30;;;;;;;;;;6132418;23;20388;-42
2023/08/05 02:19:13;;;;;;;24.75;9.10;;;;;;;;;;6129536;23;20451;-45
2023/08/05 02:21:41;;;;;;;21.48;8.65;;;;;;;;;;6127758;23;20028;-45
2023/08/05 02:24:09;;;;;;;20.13;9.17;;;;;;;;;;6128629;23;20449;-43
2023/08/05 02:26:38;;;;;;;20.88;9.05;;;;;;;;;;6109130;23;20041;-42
2023/08/05 02:29:05;;;;;;;21.55;8.45;;;;;;;;;;6130106;23;20324;-46
2023/08/05 02:31:33;;;;;;;24.50;9.73;;;;;;;;;;6129567;23;20017;-43
2023/08/05 02:34:01;;;;;;;29.77;9.65;;;;;;;;;;6131569;23;20017;-43
2023/08/05 02:36:31;;;;;;;20.10;8.70;;;;;;;;;;6134160;23;20024;-45
2023/08/05 02:39:02;;;;;;;21.80;9.60;;;;;;;;;;6132074;23;20041;-44
2023/08/05 02:41:30;;;;;;;21.88;8.68;;;;;;;;;;6129211;23;20100;-47
2023/08/05 02:43:58;;;;;;;19.08;8.73;;;;;;;;;;6125031;23;20333;-43
2023/08/05 02:46:26;;;;;;;28.30;8.95;;;;;;;;;;6139686;23;20035;-44
2023/08/05 02:48:53;;;;;;;21.23;8.90;;;;;;;;;;6125379;23;20037;-43
2023/08/05 02:51:21;;;;;;;26.77;9.35;;;;;;;;;;6131924;23;20309;-45
2023/08/05 02:53:51;;;;;;;21.52;9.25;;;;;;;;;;6125984;23;20101;-43
2023/08/05 02:56:19;;;;;;;22.15;9.30;;;;;;;;;;6110985;23;20017;-44
2023/08/05 02:58:46;;;;;;;19.85;8.88;;;;;;;;;;6130445;23;20024;-47
2023/08/05 03:01:14;;;;;;;26.47;10.07;;;;;;;;;;6130019;23;20706;-46
2023/08/05 03:03:42;;;;;;;21.98;9.93;;;;;;;;;;6134853;23;20013;-44
2023/08/05 03:06:10;;;;;;;26.75;9.90;;;;;;;;;;6129163;23;20017;-43
2023/08/05 03:08:38;;;;;;;24.17;9.27;;;;;;;;;;6136633;23;20018;-44
2023/08/05 03:11:06;;;;;;;22.67;9.48;;;;;;;;;;6121983;23;20021;-46
2023/08/05 03:13:34;;;;;;;22.20;9.33;;;;;;;;;;6131024;23;20017;-47
2023/08/05 03:16:08;;;;;;;23.38;9.40;;;;;;;;;;6126290;23;20017;-44
2023/08/05 03:18:35;;;;;;;24.70;10.32;;;;;;;;;;6157216;23;20566;-44
2023/08/05 03:21:03;;;;;;;26.55;10.35;;;;;;;;;;6125305;23;20032;-43
2023/08/05 03:23:32;;;;;;;25.10;9.98;;;;;;;;;;6131826;23;20372;-43
2023/08/05 03:26:00;;;;;;;25.97;10.27;;;;;;;;;;6111808;23;20328;-43
2023/08/05 03:28:29;;;;;;;24.38;10.32;;;;;;;;;;6130778;23;20025;-44
2023/08/05 03:30:57;;;;;;;28.40;10.57;;;;;;;;;;6135125;23;20014;-44
2023/08/05 03:33:25;;;;;;;22.95;9.68;;;;;;;;;;6119059;23;20422;-42
2023/08/05 03:35:52;;;;;;;27.73;10.07;;;;;;;;;;6130103;23;20071;-43
2023/08/05 03:38:20;;;;;;;21.73;9.23;;;;;;;;;;6134764;23;20093;-43
2023/08/05 03:40:48;;;;;;;22.95;10.25;;;;;;;;;;6120704;23;20089;-45
2023/08/05 03:43:15;;;;;;;23.42;10.27;;;;;;;;;;6133010;23;20013;-43
2023/08/05 03:45:51;;;;;;;29.15;10.43;;;;;;;;;;6132389;23;20060;-43
2023/08/05 03:48:18;;;;;;;30.05;10.20;;;;;;;;;;6129714;23;20452;-43
2023/08/05 03:50:46;;;;;;;26.63;10.73;;;;;;;;;;6129999;23;20021;-43
2023/08/05 03:53:14;;;;;;;26.00;10.68;;;;;;;;;;6129821;23;20425;-46
2023/08/05 03:55:41;;;;;;;26.02;11.00;;;;;;;;;;6127944;23;20441;-43
2023/08/05 03:58:11;;;;;;;27.73;11.25;;;;;;;;;;6132667;23;20018;-45
2023/08/05 04:00:40;;;;;;;26.05;10.27;;;;;;;;;;6132063;23;20352;-44
2023/08/05 04:03:09;;;;;;;24.17;10.63;;;;;;;;;;6128589;23;20444;-44
2023/08/05 04:05:56;;;;;;;28.83;11.23;;;;;;;;;;6125051;23;20017;-43
2023/08/05 04:08:26;;;;;;;23.63;10.38;;;;;;;;;;6134743;23;20044;-44
2023/08/05 04:10:53;;;;;;;28.15;10.50;;;;;;;;;;6125833;23;20029;-46
2023/08/05 04:13:24;;;;;;;24.00;10.27;;;;;;;;;;6133178;23;20076;-42
2023/08/05 04:15:53;;;;;;;24.67;9.67;;;;;;;;;;6126094;23;20726;-43
2023/08/05 04:18:23;;;;;;;25.67;10.18;;;;;;;;;;6134140;23;20013;-44
2023/08/05 04:20:51;;;;;;;24.70;10.38;;;;;;;;;;6125426;23;20018;-43
2023/08/05 04:23:21;;;;;;;22.45;9.52;;;;;;;;;;6134890;23;20093;-43
2023/08/05 04:25:48;;;;;;;26.55;10.23;;;;;;;;;;6111324;23;20014;-43
2023/08/05 04:28:16;;;;;;;23.60;10.33;;;;;;;;;;6131860;23;20022;-43
2023/08/05 04:30:44;;;;;;;21.63;9.35;;;;;;;;;;6124580;23;20021;-43
2023/08/05 04:33:13;;;;;;;27.10;10.27;;;;;;;;;;6135345;23;20407;-44
2023/08/05 04:35:46;;;;;;;24.60;9.80;;;;;;;;;;6129203;23;20192;-44
2023/08/05 04:38:14;;;;;;;25.40;10.25;;;;;;;;;;6133669;23;20018;-45
2023/08/05 04:40:42;;;;;;;27.10;10.33;;;;;;;;;;6124528;23;20024;-43
2023/08/05 04:43:10;;;;;;;24.92;10.82;;;;;;;;;;6133206;23;20442;-43
2023/08/05 04:45:38;;;;;;;27.02;11.20;;;;;;;;;;6129520;23;20018;-44
2023/08/05 04:48:06;;;;;;;28.42;10.30;;;;;;;;;;6122999;23;20022;-43
2023/08/05 04:50:36;;;;;;;26.75;10.98;;;;;;;;;;6127756;23;20033;-46
2023/08/05 04:53:05;;;;;;;24.93;10.50;;;;;;;;;;6120538;23;20530;-44
2023/08/05 04:55:33;;;;;;;26.73;11.32;;;;;;;;;;6131197;23;20339;-45
2023/08/05 04:58:00;;;;;;;25.45;10.73;;;;;;;;;;6123012;23;20024;-43
2023/08/05 05:00:29;;;;;;;26.27;10.05;;;;;;;;;;6127417;23;20699;-46
2023/08/05 05:02:57;;;;;;;25.42;10.35;;;;;;;;;;6126039;23;20017;-44
2023/08/05 05:05:25;;;;;;;26.53;10.33;;;;;;;;;;6130820;23;20020;-43
2023/08/05 05:07:52;;;;;;;23.52;11.10;;;;;;;;;;6119650;23;20553;-43
2023/08/05 05:10:21;;;;;;;23.92;9.93;;;;;;;;;;6132428;23;20017;-43
2023/08/05 05:12:49;;;;;;;22.80;10.00;;;;;;;;;;6120201;23;20097;-44
2023/08/05 05:15:18;;;;;;;24.10;9.68;;;;;;;;;;6128088;23;20017;-44
2023/08/05 05:17:45;;;;;;;26.53;10.10;;;;;;;;;;6122163;23;20578;-47
2023/08/05 05:20:13;;;;;;;23.88;9.73;;;;;;;;;;6132962;23;20044;-43
2023/08/05 05:22:41;;;;;;;23.30;9.57;;;;;;;;;;6123018;23;20013;-46
2023/08/05 05:25:10;;;;;;;22.90;9.18;;;;;;;;;;6125627;23;20028;-42
2023/08/05 05:27:57;;;;;;;22.83;9.45;;;;;;;;;;6127197;23;20280;-46
2023/08/05 05:30:24;;;;;;;21.97;9.87;;;;;;;;;;6123779;23;20017;-43
2023/08/05 05:32:52;;;;;;;21.35;9.65;;;;;;;;;;6128302;23;20392;-44
2023/08/05 05:35:20;;;;;;;22.75;8.88;;;;;;;;;;6124737;23;20515;-47
2023/08/05 05:37:48;;;;;;;20.88;9.18;;;;;;;;;;6118192;23;20017;-44
2023/08/05 05:40:17;;;;;;;23.08;8.80;;;;;;;;;;6128130;23;20013;-44
2023/08/05 05:42:46;;;;;;;21.80;9.40;;;;;;;;;;6128653;23;20621;-43
2023/08/05 05:45:15;;;;;;;23.15;9.95;;;;;;;;;;6128773;23;20025;-45
2023/08/05 05:47:44;;;;;;;26.73;9.98;;;;;;;;;;6127539;23;20033;-44
2023/08/05 05:50:12;;;;;;;28.77;10.05;;;;;;;;;;6121725;23;20014;-44
2023/08/05 05:52:40;;;;;;;24.77;8.98;;;;;;;;;;6131263;23;20456;-43
2023/08/05 05:55:08;;;;;;;20.20;9.10;;;;;;;;;;6121686;23;20089;-43
2023/08/05 05:57:37;;;;;;;20.40;9.57;;;;;;;;;;6126299;23;20088;-44
2023/08/05 06:00:06;;;;;;;22.92;8.50;;;;;;;;;;6129653;23;20017;-44
2023/08/05 06:02:35;;;;;;;24.13;10.07;;;;;;;;;;6123053;23;20520;-45
2023/08/05 06:05:03;;;;;;;25.23;10.05;;;;;;;;;;6126735;23;20064;-44
2023/08/05 06:07:35;;;;;;;23.93;9.60;;;;;;;;;;6126424;23;20017;-45
2023/08/05 06:10:02;;;;;;;28.60;10.00;;;;;;;;;;6132649;23;20067;-44
2023/08/05 06:12:32;;;;;;;22.80;10.30;;;;;;;;;;6121779;23;20021;-43
2023/08/05 06:15:00;;;;;;;21.70;9.68;;;;;;;;;;6129523;23;20022;-43
2023/08/05 06:17:28;;;;;;;25.33;9.25;;;;;;;;;;6121354;23;20285;-44
2023/08/05 06:19:57;;;;;;;22.93;9.43;;;;;;;;;;6130557;23;20028;-43
2023/08/05 06:22:25;;;;;;;23.13;9.13;;;;;;;;;;6121040;23;20025;-45
2023/08/05 06:24:53;;;;;;;26.05;9.85;;;;;;;;;;6131926;23;20021;-43
2023/08/05 06:27:20;;;;;;;22.58;9.73;;;;;;;;;;6121589;23;20363;-44
2023/08/05 06:29:48;;;;;;;18.90;8.98;;;;;;;;;;6128342;23;20028;-43
2023/08/05 06:32:15;;;;;;;21.03;8.97;;;;;;;;;;6120791;23;20024;-43
2023/08/05 06:34:43;;;;;;;23.77;8.63;;;;;;;;;;6125972;23;20013;-43
2023/08/05 06:37:12;;;;;;;20.15;7.38;;;;;;;;;;6118841;23;20388;-45
2023/08/05 06:39:40;;;;;;;20.67;7.65;;;;;;;;;;6129360;23;20057;-45
2023/08/05 06:42:08;;;;;;;20.42;7.40;;;;;;;;;;6122759;23;20018;-44
2023/08/05 06:44:37;;;;;;;18.33;7.77;;;;;;;;;;6129742;23;20022;-44
2023/08/05 06:47:05;;;;;;;23.80;7.07;;;;;;;;;;6124562;23;20033;-43
2023/08/05 06:49:37;;;;;;;20.95;7.30;;;;;;;;;;6129297;23;20044;-44
2023/08/05 06:52:06;;;;;;;16.45;6.60;;;;;;;;;;6132420;23;20028;-44
2023/08/05 06:54:34;;;;;;;20.02;7.05;;;;;;;;;;6120822;23;20048;-46
2023/08/05 06:57:02;;;;;;;17.40;7.30;;;;;;;;;;6127681;23;20017;-43
2023/08/05 06:59:30;;;;;;;18.77;7.38;;;;;;;;;;6123992;23;20207;-43
2023/08/05 07:01:58;;;;;;;20.33;6.43;;;;;;;;;;6131795;23;20068;-45
2023/08/05 07:04:26;;;;;;;18.83;5.85;;;;;;;;;;6116121;23;20017;-44
2023/08/05 07:06:53;;;;;;;14.55;5.28;;;;;;;;;;6125792;23;20088;-45
2023/08/05 07:09:21;;;;;;;17.53;5.47;;;;;;;;;;6124874;23;20025;-44
2023/08/05 07:11:50;;;;;;;16.95;5.80;;;;;;;;;;6126840;23;20017;-45
2023/08/05 07:14:18;;;;;;;16.55;5.40;;;;;;;;;;6121451;23;20024;-44
2023/08/05 07:16:46;;;;;;;12.77;4.95;;;;;;;;;;6125390;23;20452;-45
2023/08/05 07:19:14;;;;;;;12.88;4.60;;;;;;;;;;6119959;23;20029;-43
2023/08/05 07:21:41;;;;;;;11.50;4.13;;;;;;;;;;6130675;23;20029;-43
2023/08/05 07:24:09;;;;;;;11.75;3.83;;;;;;;;;;6120909;23;20024;-43
2023/08/05 07:26:36;;;;;;;12.05;4.22;;;;;;;;;;6126891;23;20013;-43
2023/08/05 07:29:05;;;;;;;10.48;3.15;;;;;;;;;;6144277;23;20022;-44
2023/08/05 07:31:37;;;;;;;10.60;3.47;;;;;;;;;;6130109;23;20063;-44
2023/08/05 07:34:05;;;;;;;10.50;3.13;;;;;;;;;;6147930;23;20084;-43
2023/08/05 07:36:33;;;;;;;9.63;3.13;;;;;;;;;;6126067;23;20452;-43
2023/08/05 07:39:03;;;;;;;9.40;2.85;;;;;;;;;;6121743;23;20414;-44
2023/08/05 07:41:32;;;;;;;7.68;2.58;;;;;;;;;;6129221;23;20017;-42
2023/08/05 07:44:00;;;;;;;7.45;2.10;;;;;;;;;;6121632;23;20018;-43
2023/08/05 07:46:31;;;;;;;7.67;2.20;;;;;;;;;;6123569;23;20048;-42
2023/08/05 07:49:00;;;;;;;8.15;2.67;;;;;;;;;;6131243;23;20014;-44
2023/08/05 07:51:29;;;;;;;7.38;1.83;;;;;;;;;;6113966;23;20468;-45
2023/08/05 07:53:57;;;;;;;6.82;1.75;;;;;;;;;;6131905;23;20048;-43
2023/08/05 07:56:26;;;;;;;6.40;1.70;;;;;;;;;;6119090;23;20022;-48
2023/08/05 07:58:53;;;;;;;4.67;1.20;;;;;;;;;;6128860;23;20027;-44
2023/08/05 08:01:22;;;;;;;4.80;1.40;;;;;;;;;;6149319;23;20045;-43
2023/08/05 08:03:53;;;;;;;3.50;0.70;;;;;;;;;;6119506;23;20025;-43
2023/08/05 08:06:22;;;;;;;4.95;0.70;;;;;;;;;;6151351;23;20459;-45
2023/08/05 08:08:51;;;;;;;4.40;0.60;;;;;;;;;;6119149;23;20396;-45
2023/08/05 08:11:18;;;;;;;3.30;0.50;;;;;;;;;;6154149;23;20014;-43
2023/08/05 08:13:46;;;;;;;3.05;0.50;;;;;;;;;;6119742;23;20017;-45
2023/08/05 08:16:15;;;;;;;3.70;0.82;;;;;;;;;;6129757;23;20029;-45
2023/08/05 08:18:43;;;;;;;3.50;0.60;;;;;;;;;;6121613;23;20013;-43
2023/08/05 08:21:12;;;;;;;4.07;1.10;;;;;;;;;;6127722;23;20028;-44
2023/08/05 08:23:40;;;;;;;3.07;0.60;;;;;;;;;;6119616;23;20017;-43
2023/08/05 08:26:07;;;;;;;2.83;0.80;;;;;;;;;;6128456;23;20024;-46
2023/08/05 08:28:35;;;;;;;2.95;0.35;;;;;;;;;;6120553;23;20024;-44
2023/08/05 08:31:04;;;;;;;2.22;0.22;;;;;;;;;;6120847;23;20021;-44
2023/08/05 08:33:32;;;;;;;2.28;0.32;;;;;;;;;;6124759;23;20018;-44
2023/08/05 08:36:00;;;;;;;2.33;0.50;;;;;;;;;;6126764;23;20104;-44
2023/08/05 08:38:29;;;;;;;2.00;0.40;;;;;;;;;;6129012;23;20488;-43
2023/08/05 08:40:57;;;;;;;1.80;0.30;;;;;;;;;;6121031;23;20360;-47
2023/08/05 08:43:25;;;;;;;2.28;0.40;;;;;;;;;;6125836;23;20013;-47
2023/08/05 08:45:54;;;;;;;2.33;0.30;;;;;;;;;;6131209;23;20013;-44
2023/08/05 08:48:22;;;;;;;2.13;0.30;;;;;;;;;;6120791;23;20029;-44
2023/08/05 08:50:52;;;;;;;2.55;0.50;;;;;;;;;;6128838;23;20021;-44
2023/08/05 08:53:20;;;;;;;2.10;0.30;;;;;;;;;;6119140;23;20017;-43
2023/08/05 08:55:50;;;;;;;3.35;0.60;;;;;;;;;;6128984;23;20044;-43
2023/08/05 08:58:18;;;;;;;3.53;0.30;;;;;;;;;;6121018;23;20018;-46
2023/08/05 09:00:46;;;;;;;7.20;0.40;;;;;;;;;;6123526;23;20663;-46
2023/08/05 09:03:14;;;;;;;2.45;0.40;;;;;;;;;;6129279;23;20024;-45
2023/08/05 09:05:43;;;;;;;3.08;0.40;;;;;;;;;;6128534;23;20441;-42
2023/08/05 09:08:10;;;;;;;2.22;0.47;;;;;;;;;;6118718;23;20039;-45
2023/08/05 09:10:38;;;;;;;3.22;0.40;;;;;;;;;;6125600;23;20025;-44
2023/08/05 09:13:07;;;;;;;2.50;0.30;;;;;;;;;;6120810;23;20044;-43
2023/08/05 09:15:36;;;;;;;2.25;0.28;;;;;;;;;;6119581;23;20018;-45
2023/08/05 09:18:05;;;;;;;2.25;0.40;;;;;;;;;;6120049;23;20021;-43
2023/08/05 09:20:33;;;;;;;4.45;0.50;;;;;;;;;;6120386;23;20071;-47
2023/08/05 09:23:02;;;;;;;2.05;0.20;;;;;;;;;;6126349;23;20027;-43
2023/08/05 09:25:30;;;;;;;2.17;0.40;;;;;;;;;;6120105;23;20022;-43
2023/08/05 09:28:00;;;;;;;2.58;0.40;;;;;;;;;;6127179;23;20088;-44
2023/08/05 09:30:34;;;;;;;2.10;0.30;;;;;;;;;;6117915;23;20100;-43
2023/08/05 09:33:03;;;;;;;2.03;0.20;;;;;;;;;;6129999;23;20098;-43
2023/08/05 09:35:31;;;;;;;2.65;0.40;;;;;;;;;;6116814;23;20412;-44
2023/08/05 09:38:00;;;;;;;1.90;0.30;;;;;;;;;;6120580;23;20021;-43
2023/08/05 09:40:29;;;;;;;2.83;0.52;;;;;;;;;;6120296;23;20064;-43
2023/08/05 09:42:59;;;;;;;2.78;0.30;;;;;;;;;;6131297;23;20024;-43
2023/08/05 09:45:28;;;;;;;2.95;0.50;;;;;;;;;;6124121;23;20013;-45
2023/08/05 09:48:03;;;;;;;3.20;0.50;;;;;;;;;;6127097;23;20020;-43
2023/08/05 09:50:36;;;;;;;2.47;0.47;;;;;;;;;;6132549;23;20026;-44
2023/08/05 09:53:06;;;;;;;3.22;0.55;;;;;;;;;;6113916;23;20456;-42
2023/08/05 09:55:35;;;;;;;2.63;0.40;;;;;;;;;;6129426;23;20021;-44
2023/08/05 09:58:07;;;;;;;2.67;0.57;;;;;;;;;;6122249;23;20087;-42
2023/08/05 10:00:36;;;;;;;3.85;0.45;;;;;;;;;;6126155;23;20077;-44
2023/08/05 10:03:06;;;;;;;2.73;0.73;;;;;;;;;;6126305;23;20022;-45
2023/08/05 10:05:39;;;;;;;4.25;0.88;;;;;;;;;;6126592;23;20025;-43
2023/08/05 10:08:07;;;;;;;4.47;0.68;;;;;;;;;;6116318;23;20029;-45
2023/08/05 10:10:37;;;;;;;3.58;0.70;;;;;;;;;;6152658;23;20535;-43
2023/08/05 10:13:08;;;;;;;4.32;0.80;;;;;;;;;;6121227;23;20021;-43
2023/08/05 10:15:38;;;;;;;3.37;0.80;;;;;;;;;;6122663;23;20013;-43
2023/08/05 10:18:10;;;;;;;6.75;1.00;;;;;;;;;;6131181;23;20637;-49
2023/08/05 10:20:37;;;;;;;4.13;0.90;;;;;;;;;;6121398;23;20725;-46
2023/08/05 10:23:06;;;;;;;5.68;1.15;;;;;;;;;;6129071;23;20018;-42
2023/08/05 10:25:41;;;;;;;4.95;1.20;;;;;;;;;;6117176;23;20379;-44
2023/08/05 10:28:09;;;;;;;8.17;1.40;;;;;;;;;;6132367;23;20092;-43
2023/08/05 10:30:44;;;;;;;3.95;0.75;;;;;;;;;;6121956;23;20018;-45
2023/08/05 10:33:15;;;;;;;4.72;1.00;;;;;;;;;;6123941;23;20020;-44
2023/08/05 10:35:43;;;;;;;7.72;0.98;;;;;;;;;;6125328;23;20028;-44
2023/08/05 10:38:12;;;;;;;7.75;1.25;;;;;;;;;;6131681;23;20017;-44
2023/08/05 10:40:47;;;;;;;9.20;0.70;;;;;;;;;;6120872;23;20021;-48
2023/08/05 10:43:34;;;;;;;5.72;1.20;;;;;;;;;;6130790;23;20017;-45
2023/08/05 10:46:02;;;;;;;7.00;1.20;;;;;;;;;;6157726;23;20028;-47
2023/08/05 10:48:34;;;;;;;7.90;1.40;;;;;;;;;;6121110;23;20045;-44
2023/08/05 10:51:04;;;;;;;4.28;0.93;;;;;;;;;;6127985;23;20037;-43
2023/08/05 10:53:32;;;;;;;6.77;1.30;;;;;;;;;;6142049;23;20022;-43
2023/08/05 10:56:02;;;;;;;9.32;1.17;;;;;;;;;;6125686;23;20032;-43
2023/08/05 10:58:31;;;;;;;4.60;0.80;;;;;;;;;;6130815;23;20017;-43
2023/08/05 11:00:59;;;;;;;10.88;1.23;;;;;;;;;;6126436;23;20014;-42
2023/08/05 11:03:32;;;;;;;4.20;1.13;;;;;;;;;;6126045;23;20440;-42
2023/08/05 11:06:01;;;;;;;5.83;1.20;;;;;;;;;;6119349;23;20017;-44
2023/08/05 11:08:30;;;;;;;5.82;0.93;;;;;;;;;;6129739;23;20684;-43
2023/08/05 11:11:00;;;;;;;7.40;1.05;;;;;;;;;;6119328;23;20024;-43
2023/08/05 11:13:32;;;;;;;6.15;1.25;;;;;;;;;;6129974;23;20018;-42
2023/08/05 11:16:00;;;;;;;8.10;1.30;;;;;;;;;;6120783;23;20043;-43
2023/08/05 11:18:28;;;;;;;6.57;1.33;;;;;;;;;;6130060;23;20017;-42
2023/08/05 11:20:58;;;;;;;8.32;1.60;;;;;;;;;;6112671;23;20440;-42
2023/08/05 11:23:26;;;;;;;9.43;1.15;;;;;;;;;;6129402;23;20183;-46
2023/08/05 11:25:54;;;;;;;10.57;1.00;;;;;;;;;;6121541;23;20364;-42
2023/08/05 11:28:22;;;;;;;9.05;0.90;;;;;;;;;;6126944;23;20017;-45
2023/08/05 11:30:53;;;;;;;5.30;1.23;;;;;;;;;;6124384;23;20029;-44
2023/08/05 11:33:20;;;;;;;6.05;0.80;;;;;;;;;;6121343;23;20299;-43
2023/08/05 11:35:48;;;;;;;3.85;0.55;;;;;;;;;;6123198;23;20401;-42
2023/08/05 11:38:18;;;;;;;3.70;0.63;;;;;;;;;;6130016;23;20081;-44
2023/08/05 11:40:46;;;;;;;12.40;1.00;;;;;;;;;;6112656;23;20053;-43
2023/08/05 11:43:14;;;;;;;5.17;0.70;;;;;;;;;;6125945;23;20027;-45
2023/08/05 11:45:42;;;;;;;4.78;0.63;;;;;;;;;;6128586;23;20084;-44
2023/08/05 11:48:17;;;;;;;7.05;0.70;;;;;;;;;;6118817;23;20019;-45
2023/08/05 11:50:45;;;;;;;7.25;0.70;;;;;;;;;;6129054;23;20021;-43
2023/08/05 11:53:13;;;;;;;5.40;0.80;;;;;;;;;;6120339;23;20353;-45
2023/08/05 11:55:43;;;;;;;5.77;1.00;;;;;;;;;;6120136;23;20041;-47
2023/08/05 11:58:11;;;;;;;8.07;1.15;;;;;;;;;;6119919;23;20345;-41
2023/08/05 12:00:42;;;;;;;4.93;1.52;;;;;;;;;;6130261;23;20017;-45
2023/08/05 12:03:10;;;;;;;5.25;1.00;;;;;;;;;;6125400;23;20018;-44
2023/08/05 12:05:38;;;;;;;5.43;0.93;;;;;;;;;;6126499;23;20056;-47
2023/08/05 12:08:06;;;;;;;4.57;0.90;;;;;;;;;;6116877;23;20017;-44
2023/08/05 12:10:34;;;;;;;3.92;0.82;;;;;;;;;;6126374;23;20017;-44
2023/08/05 12:13:04;;;;;;;4.70;1.10;;;;;;;;;;6122462;23;20021;-43
2023/08/05 12:15:32;;;;;;;5.47;1.20;;;;;;;;;;6125074;23;20024;-42
2023/08/05 12:18:00;;;;;;;5.88;1.27;;;;;;;;;;6124331;23;20024;-43
2023/08/05 12:20:28;;;;;;;4.90;1.70;;;;;;;;;;6119173;23;20013;-43
2023/08/05 12:22:58;;;;;;;6.13;1.50;;;;;;;;;;6131578;23;20032;-44
2023/08/05 12:25:26;;;;;;;5.63;1.45;;;;;;;;;;6119986;23;20024;-43
2023/08/05 12:27:54;;;;;;;5.57;1.83;;;;;;;;;;6128087;23;20041;-47
2023/08/05 12:30:23;;;;;;;8.10;1.75;;;;;;;;;;6119900;23;20020;-43
2023/08/05 12:32:53;;;;;;;5.63;1.87;;;;;;;;;;6131321;23;20072;-46
2023/08/05 12:35:20;;;;;;;7.35;1.77;;;;;;;;;;6122154;23;20068;-44
2023/08/05 12:37:48;;;;;;;6.88;2.30;;;;;;;;;;6117896;23;20064;-42
2023/08/05 12:40:18;;;;;;;8.10;2.70;;;;;;;;;;6126687;23;20121;-44
2023/08/05 12:42:45;;;;;;;5.70;2.22;;;;;;;;;;6129105;23;20351;-44
2023/08/05 12:45:13;;;;;;;7.70;2.50;;;;;;;;;;6120878;23;20796;-42
2023/08/05 12:47:42;;;;;;;7.97;2.83;;;;;;;;;;6127573;23;20014;-42
2023/08/05 12:50:10;;;;;;;7.40;3.38;;;;;;;;;;6121099;23;20024;-43
2023/08/05 12:52:38;;;;;;;6.97;2.97;;;;;;;;;;6130259;23;20029;-42
2023/08/05 12:55:06;;;;;;;7.93;2.63;;;;;;;;;;6115534;23;20029;-42
2023/08/05 12:57:33;;;;;;;7.60;2.57;;;;;;;;;;6128420;23;20040;-42
2023/08/05 13:00:01;;;;;;;7.18;2.50;;;;;;;;;;6120366;23;20018;-44
2023/08/05 13:02:29;;;;;;;5.70;1.80;;;;;;;;;;6124769;23;20523;-43
2023/08/05 13:04:58;;;;;;;7.50;2.67;;;;;;;;;;6126028;23;20056;-43
2023/08/05 13:07:26;;;;;;;5.43;1.58;;;;;;;;;;6125768;23;20017;-42
2023/08/05 13:09:55;;;;;;;4.37;1.83;;;;;;;;;;6122976;23;20325;-43
2023/08/05 13:12:23;;;;;;;5.00;1.42;;;;;;;;;;6120987;23;20028;-42
2023/08/05 13:14:51;;;;;;;5.07;1.40;;;;;;;;;;6130427;23;20084;-42
2023/08/05 13:17:19;;;;;;;6.63;1.75;;;;;;;;;;6122679;23;20169;-43
2023/08/05 13:19:46;;;;;;;4.70;1.58;;;;;;;;;;6133280;23;20032;-42
2023/08/05 13:22:16;;;;;;;3.70;1.20;;;;;;;;;;6143165;23;20392;-42
2023/08/05 13:24:44;;;;;;;4.85;1.30;;;;;;;;;;6122781;23;20021;-42
2023/08/05 13:27:11;;;;;;;4.95;1.40;;;;;;;;;;6144661;23;20080;-42
2023/08/05 13:29:39;;;;;;;3.72;1.10;;;;;;;;;;6127797;23;20436;-43
2023/08/05 13:32:07;;;;;;;4.35;1.40;;;;;;;;;;6145104;23;20025;-43
2023/08/05 13:34:34;;;;;;;4.50;1.40;;;;;;;;;;6126680;23;20018;-42
2023/08/05 13:37:04;;;;;;;3.97;1.33;;;;;;;;;;6127599;23;20451;-43
2023/08/05 13:39:33;;;;;;;3.35;1.00;;;;;;;;;;6130033;23;20032;-42
2023/08/05 13:42:01;;;;;;;5.50;1.27;;;;;;;;;;6119162;23;20068;-44
2023/08/05 13:44:29;;;;;;;5.07;1.70;;;;;;;;;;6129998;23;20028;-43
2023/08/05 13:46:57;;;;;;;4.70;1.70;;;;;;;;;;6124454;23;20017;-44
2023/08/05 13:49:25;;;;;;;5.35;2.10;;;;;;;;;;6153699;23;20384;-42
2023/08/05 13:51:53;;;;;;;5.32;2.20;;;;;;;;;;6122225;23;20018;-44
2023/08/05 13:54:23;;;;;;;4.28;1.30;;;;;;;;;;6125702;23;20014;-44
2023/08/05 13:56:52;;;;;;;4.22;1.45;;;;;;;;;;6129670;23;20076;-46
2023/08/05 13:59:20;;;;;;;5.43;1.70;;;;;;;;;;6117266;23;20013;-45
2023/08/05 14:01:48;;;;;;;4.70;1.55;;;;;;;;;;6135262;23;20025;-44
2023/08/05 14:04:19;;;;;;;4.85;1.75;;;;;;;;;;6125151;23;20025;-43
2023/08/05 14:06:46;;;;;;;4.28;1.30;;;;;;;;;;6128329;23;20049;-43
2023/08/05 14:09:14;;;;;;;3.70;1.00;;;;;;;;;;6121102;23;20022;-44
2023/08/05 14:11:41;;;;;;;4.60;1.33;;;;;;;;;;6124950;23;20036;-43
2023/08/05 14:14:10;;;;;;;4.53;1.30;;;;;;;;;;6125862;23;20029;-43
2023/08/05 14:16:39;;;;;;;4.75;1.02;;;;;;;;;;6131251;23;20024;-42
2023/08/05 14:19:07;;;;;;;4.90;1.30;;;;;;;;;;6121053;23;20527;-43
2023/08/05 14:21:35;;;;;;;3.70;0.90;;;;;;;;;;6130473;23;20571;-42
2023/08/05 14:24:20;;;;;;;3.27;1.00;;;;;;;;;;6120731;23;20013;-43
2023/08/05 14:26:48;;;;;;;3.40;0.73;;;;;;;;;;6122063;23;20018;-44
2023/08/05 14:29:17;;;;;;;3.00;0.75;;;;;;;;;;6128017;23;20022;-46
2023/08/05 14:31:45;;;;;;;3.65;1.10;;;;;;;;;;6121037;23;20021;-45
2023/08/05 14:34:15;;;;;;;3.22;0.80;;;;;;;;;;6126556;23;20021;-42
2023/08/05 14:36:42;;;;;;;4.20;0.77;;;;;;;;;;6116026;23;20018;-44
2023/08/05 14:39:10;;;;;;;3.35;0.90;;;;;;;;;;6130765;23;20024;-43
2023/08/05 14:41:38;;;;;;;3.83;1.23;;;;;;;;;;6119147;23;20024;-44